createdAt,value
2019-04-05T00:00:04.084Z,64.30
2019-04-05T00:04:57.419Z,64.20
2019-04-05T00:09:31.062Z,64.20
2019-04-05T00:14:05.313Z,64.30
2019-04-05T00:18:43.849Z,63.70
2019-04-05T00:23:16.706Z,64.40
2019-04-05T00:27:51.205Z,64.80
2019-04-05T00:32:23.631Z,64.70
2019-04-05T00:36:56.320Z,64.40
2019-04-05T00:41:46.900Z,65.10
2019-04-05T00:46:19.327Z,65.20
2019-04-05T00:50:50.997Z,64.70
2019-04-05T00:55:24.847Z,64.70
2019-04-05T01:00:20.333Z,64.20
2019-04-05T01:09:43.694Z,64.90
2019-04-05T01:14:17.456Z,65.40
2019-04-05T01:18:52.137Z,65.20
2019-04-05T01:23:25.630Z,66.10
2019-04-05T01:27:57.540Z,65.30
2019-04-05T01:37:05.780Z,65.20
2019-04-05T01:41:39.183Z,65.40
2019-04-05T01:46:12.142Z,65.50
2019-04-05T01:50:45.284Z,64.70
2019-04-05T01:55:16.897Z,64.80
2019-04-05T01:59:48.812Z,64.70
2019-04-05T02:04:20.168Z,65.20
2019-04-05T02:13:25.615Z,64.60
2019-04-05T02:17:56.860Z,64.80
2019-04-05T02:22:28.031Z,65.30
2019-04-05T02:26:59.188Z,65.50
2019-04-05T02:31:30.489Z,65.40
2019-04-05T02:36:02.590Z,65.90
2019-04-05T02:40:37.848Z,66.10
2019-04-05T02:45:14.342Z,66.20
2019-04-05T02:49:48.019Z,66.30
2019-04-05T02:54:25.028Z,66.70
2019-04-05T02:58:55.888Z,67.10
2019-04-05T03:03:27.688Z,67.30
2019-04-05T03:07:59.712Z,68.00
2019-04-05T03:12:36.528Z,67.90
2019-04-05T03:17:07.276Z,68.40
2019-04-05T03:21:44.121Z,68.70
2019-04-05T03:26:19.057Z,69.40
2019-04-05T03:30:50.645Z,69.20
2019-04-05T03:35:28.082Z,70.30
2019-04-05T03:40:02.458Z,70.10
2019-04-05T03:44:34.699Z,70.20
2019-04-05T03:49:06.919Z,70.40
2019-04-05T03:53:40.243Z,70.10
2019-04-05T03:58:11.765Z,70.70
2019-04-05T04:02:44.115Z,70.50
2019-04-05T04:07:36.407Z,69.90
2019-04-05T04:12:07.737Z,69.80
2019-04-05T04:16:42.727Z,70.10
2019-04-05T04:21:23.559Z,69.80
2019-04-05T04:25:58.782Z,69.70
2019-04-05T04:30:31.819Z,69.70
2019-04-05T04:35:04.196Z,69.50
2019-04-05T04:39:36.794Z,69.20
2019-04-05T04:44:07.370Z,69.20
2019-04-05T04:48:39.359Z,68.40
2019-04-05T04:53:15.342Z,68.50
2019-04-05T04:57:47.857Z,68.30
2019-04-05T05:02:20.262Z,68.10
2019-04-05T05:06:51.815Z,67.50
2019-04-05T05:11:25.292Z,67.10
2019-04-05T05:15:56.684Z,66.50
2019-04-05T05:20:26.988Z,67.10
2019-04-05T05:24:59.737Z,66.30
2019-04-05T05:29:35.009Z,65.70
2019-04-05T05:34:08.731Z,65.10
2019-04-05T05:38:42.930Z,64.80
2019-04-05T05:43:15.858Z,63.80
2019-04-05T05:47:52.086Z,64.10
2019-04-05T05:52:23.413Z,63.60
2019-04-05T05:56:55.927Z,63.00
2019-04-05T06:01:27.245Z,66.70
2019-04-05T06:06:04.671Z,64.80
2019-04-05T06:10:35.456Z,62.40
2019-04-05T06:15:06.734Z,64.00
2019-04-05T06:19:39.233Z,63.70
2019-04-05T06:24:11.220Z,61.20
2019-04-05T06:28:44.132Z,61.40
2019-04-05T06:33:30.630Z,65.50
2019-04-05T06:37:58.377Z,63.90
2019-04-05T06:42:31.794Z,60.80
2019-04-05T06:47:05.510Z,59.50
2019-04-05T06:51:36.087Z,59.50
2019-04-05T06:56:06.999Z,58.70
2019-04-05T07:00:56.453Z,58.30
2019-04-05T07:05:20.961Z,59.10
2019-04-05T07:14:24.138Z,56.40
2019-04-05T07:18:56.101Z,60.30
2019-04-05T07:23:48.024Z,57.50
2019-04-05T07:28:19.706Z,57.90
2019-04-05T07:32:51.114Z,55.80
2019-04-05T07:37:24.044Z,57.10
2019-04-05T07:41:56.834Z,60.70
2019-04-05T07:46:31.714Z,53.60
2019-04-05T07:51:04.396Z,53.60
2019-04-05T07:55:55.834Z,54.30
2019-04-05T08:01:15.857Z,51.40
2019-04-05T08:06:23.987Z,50.80
2019-04-05T08:11:05.812Z,52.90
2019-04-05T08:15:38.400Z,53.00
2019-04-05T08:20:15.248Z,54.80
2019-04-05T08:25:05.973Z,55.10
2019-04-05T08:29:36.953Z,50.60
2019-04-05T08:34:09.558Z,50.40
2019-04-05T08:38:41.409Z,51.90
2019-04-05T08:43:13.138Z,48.00
2019-04-05T08:47:45.272Z,48.40
2019-04-05T08:52:16.792Z,49.20
2019-04-05T08:56:54.145Z,49.00
2019-04-05T09:01:28.002Z,47.30
2019-04-05T09:10:35.696Z,47.00
2019-04-05T09:15:09.521Z,45.90
2019-04-05T09:19:41.588Z,44.80
2019-04-05T09:24:13.858Z,44.30
2019-04-05T09:28:45.311Z,44.70
2019-04-05T09:33:17.001Z,44.70
2019-04-05T09:37:50.091Z,45.80
2019-04-05T09:42:22.575Z,45.30
2019-04-05T09:46:54.606Z,46.70
2019-04-05T09:51:46.734Z,46.20
2019-04-05T09:56:22.052Z,45.40
2019-04-05T10:00:55.383Z,46.50
2019-04-05T10:05:27.379Z,46.70
2019-04-05T10:10:01.822Z,44.40
2019-04-05T10:14:34.952Z,44.80
2019-04-05T10:19:07.667Z,46.10
2019-04-05T10:23:42.233Z,43.70
2019-04-05T10:28:15.244Z,44.70
2019-04-05T10:32:48.874Z,46.60
2019-04-05T10:37:21.459Z,44.60
2019-04-05T10:42:03.242Z,43.50
2019-04-05T10:46:29.892Z,43.80
2019-04-05T10:51:01.886Z,44.00
2019-04-05T10:55:37.379Z,43.90
2019-04-05T11:00:10.818Z,42.40
2019-04-05T11:09:17.260Z,43.10
2019-04-05T11:13:50.092Z,42.60
2019-04-05T11:18:21.812Z,43.30
2019-04-05T11:22:53.897Z,43.90
2019-04-05T11:27:26.985Z,43.50
2019-04-05T11:31:57.779Z,43.80
2019-04-05T11:36:30.386Z,44.00
2019-04-05T11:41:06.036Z,43.70
2019-04-05T11:45:38.571Z,42.70
2019-04-05T11:50:13.188Z,43.70
2019-04-05T11:54:47.781Z,43.70
2019-04-05T11:59:24.846Z,44.10
2019-04-05T12:03:54.110Z,43.00
2019-04-05T12:08:26.074Z,42.80
2019-04-05T12:12:57.956Z,43.00
2019-04-05T12:17:29.548Z,43.40
2019-04-05T12:22:08.930Z,43.20
2019-04-05T12:26:42.640Z,43.40
2019-04-05T12:31:14.694Z,43.70
2019-04-05T12:36:07.513Z,44.80
2019-04-05T12:40:42.209Z,43.60
2019-04-05T12:45:15.586Z,43.30
2019-04-05T12:49:52.858Z,43.60
2019-04-05T12:54:25.666Z,43.90
2019-04-05T12:58:59.802Z,43.60
2019-04-05T13:03:34.479Z,42.30
2019-04-05T13:08:09.095Z,43.30
2019-04-05T13:12:41.080Z,43.10
2019-04-05T13:17:12.744Z,43.40
2019-04-05T13:21:45.826Z,43.40
2019-04-05T13:26:18.178Z,43.30
2019-04-05T13:30:50.129Z,42.40
2019-04-05T13:35:26.207Z,43.20
2019-04-05T13:40:06.563Z,43.70
2019-04-05T13:53:57.542Z,42.70
2019-04-05T13:58:32.289Z,43.30
2019-04-05T14:03:04.203Z,42.90
2019-04-05T14:07:37.022Z,42.90
2019-04-05T14:12:09.582Z,43.00
2019-04-05T14:16:43.814Z,43.00
2019-04-05T14:21:15.180Z,42.90
2019-04-05T14:25:48.220Z,43.20
2019-04-05T14:30:23.229Z,44.00
2019-04-05T14:34:55.119Z,42.70
2019-04-05T14:39:30.019Z,43.10
2019-04-05T14:48:48.014Z,44.00
2019-04-05T14:53:19.915Z,44.10
2019-04-05T14:57:51.422Z,44.40
2019-04-05T15:02:23.861Z,43.90
2019-04-05T15:06:57.607Z,44.20
2019-04-05T15:11:32.044Z,44.10
2019-04-05T15:16:03.503Z,43.90
2019-04-05T15:20:36.008Z,44.80
2019-04-05T15:25:07.967Z,45.00
2019-04-05T15:29:42.535Z,45.20
2019-04-05T15:34:16.031Z,44.60
2019-04-05T15:38:51.675Z,45.10
2019-04-05T15:43:24.599Z,45.60
2019-04-05T15:57:16.118Z,46.10
2019-04-05T16:02:07.256Z,46.70
2019-04-05T16:06:40.265Z,45.90
2019-04-05T16:15:43.980Z,45.70
2019-04-05T16:20:17.532Z,46.20
2019-04-05T16:24:52.749Z,46.40
2019-04-05T16:29:24.467Z,47.00
2019-04-05T16:33:57.330Z,47.70
2019-04-05T16:38:28.052Z,47.80
2019-04-05T16:43:03.635Z,48.50
2019-04-05T16:47:35.450Z,48.50
2019-04-05T16:52:06.933Z,48.70
2019-04-05T16:56:40.085Z,49.20
2019-04-05T17:01:12.152Z,49.50
2019-04-05T17:05:44.014Z,50.60
2019-04-05T17:10:16.356Z,51.10
2019-04-05T17:14:47.769Z,51.00
2019-04-05T17:19:21.356Z,51.20
2019-04-05T17:23:53.889Z,51.70
2019-04-05T17:28:31.908Z,52.20
2019-04-05T17:33:06.098Z,52.40
2019-04-05T17:37:38.509Z,53.30
2019-04-05T17:46:57.763Z,52.80
2019-04-05T17:51:30.017Z,52.90
2019-04-05T17:56:03.046Z,54.00
2019-04-05T18:00:36.600Z,53.60
2019-04-05T18:05:27.411Z,54.10
2019-04-05T18:10:00.007Z,54.60
2019-04-05T18:14:32.347Z,54.90
2019-04-05T18:19:04.988Z,55.40
2019-04-05T18:23:59.644Z,55.60
2019-04-05T18:28:51.767Z,56.40
2019-04-05T18:33:27.433Z,56.70
2019-04-05T18:37:57.689Z,57.30
2019-04-05T18:42:30.131Z,57.60
2019-04-05T18:47:02.389Z,58.10
2019-04-05T18:51:41.708Z,58.50
2019-04-05T18:56:18.022Z,58.80
2019-04-05T19:00:52.281Z,59.10
2019-04-05T19:10:51.795Z,60.00
2019-04-05T20:08:13.724Z,64.30
2019-04-05T20:13:11.849Z,65.10
2019-04-05T20:17:46.488Z,65.10
2019-04-05T20:22:20.981Z,66.30
2019-04-05T20:31:37.281Z,66.90
2019-04-05T20:36:21.754Z,66.70
2019-04-05T20:40:59.035Z,66.70
2019-04-05T20:45:35.087Z,66.90
2019-04-05T20:54:50.843Z,66.40
2019-04-05T21:04:02.758Z,65.50
2019-04-05T21:08:36.143Z,66.10
2019-04-05T21:13:08.238Z,65.20
2019-04-05T21:17:41.651Z,65.60
2019-04-05T21:22:14.887Z,65.20
2019-04-05T21:26:53.547Z,65.30
2019-04-05T21:31:29.957Z,64.80
2019-04-05T21:36:08.901Z,65.00
2019-04-05T21:40:49.389Z,64.60
2019-04-05T21:45:27.815Z,64.70
2019-04-05T21:49:59.191Z,65.30
2019-04-05T21:54:30.989Z,65.60
2019-04-05T21:59:08.238Z,65.60
2019-04-05T22:03:42.881Z,65.70
2019-04-05T22:08:16.205Z,66.40
2019-04-05T22:12:51.447Z,65.80
2019-04-05T22:17:43.897Z,66.30
2019-04-05T22:22:16.010Z,66.20
2019-04-05T22:26:48.024Z,65.80
2019-04-05T22:31:22.602Z,65.60
2019-04-05T22:40:33.211Z,66.30
2019-04-05T22:45:06.765Z,65.80
2019-04-05T22:49:40.194Z,66.80
2019-04-05T22:54:12.937Z,64.90
2019-04-05T22:58:47.977Z,67.40
2019-04-05T23:03:20.486Z,67.30
2019-04-05T23:07:55.086Z,67.70
2019-04-05T23:12:26.668Z,68.00
2019-04-05T23:17:01.702Z,67.70
2019-04-05T23:21:36.376Z,68.30
2019-04-05T23:26:08.898Z,68.70
2019-04-05T23:30:41.580Z,69.00
2019-04-05T23:35:16.979Z,68.70
2019-04-05T23:39:50.514Z,69.70
2019-04-05T23:44:22.424Z,69.80
2019-04-05T23:48:54.975Z,69.90
2019-04-05T23:53:27.576Z,70.40
2019-04-05T23:58:03.336Z,71.00
